Time;durP1;ratioP1;P1;durP2;ratioP2;P2;SDS_P1;SDS_P2;PMS_P1;PMS_P2;Temp;Humidity;BMP_temperature;BMP_pressure;BME280_temperature;BME280_humidity;BME280_pressure;Samples;Min_cycle;Max_cycle;Signal;HPM_P1;HPM_P2
2021/06/05 00:02:20;;;;;;;3.80;1.00;;;;;;;;;;5061131;28;20550;-78
2021/06/05 00:04:46;;;;;;;2.05;1.08;;;;;;;;;;5056143;28;20060;-78
2021/06/05 00:07:13;;;;;;;1.00;1.00;;;;;;;;;;5066239;28;20041;-78
2021/06/05 00:09:40;;;;;;;0.93;0.93;;;;;;;;;;5055768;28;20044;-78
2021/06/05 00:12:09;;;;;;;1.02;1.00;;;;;;;;;;5066551;28;20036;-78
2021/06/05 00:14:35;;;;;;;1.00;1.00;;;;;;;;;;5059783;28;20035;-78
2021/06/05 00:17:02;;;;;;;2.53;1.00;;;;;;;;;;5070089;28;20058;-78
2021/06/05 00:19:29;;;;;;;0.90;0.90;;;;;;;;;;5063444;28;20061;-78
2021/06/05 00:21:56;;;;;;;2.22;0.90;;;;;;;;;;5065189;28;20045;-78
2021/06/05 00:24:23;;;;;;;3.00;1.10;;;;;;;;;;5069246;28;20037;-78
2021/06/05 00:26:50;;;;;;;1.33;0.93;;;;;;;;;;5069311;28;20413;-78
2021/06/05 00:29:17;;;;;;;2.78;1.50;;;;;;;;;;5057365;28;20536;-78
2021/06/05 00:31:44;;;;;;;1.00;1.00;;;;;;;;;;5063378;28;20051;-78
2021/06/05 00:34:12;;;;;;;1.00;1.00;;;;;;;;;;5069776;28;20086;-78
2021/06/05 00:36:39;;;;;;;1.85;1.23;;;;;;;;;;5069778;28;20041;-78
2021/06/05 00:39:06;;;;;;;2.53;0.95;;;;;;;;;;5081741;28;20059;-78
2021/06/05 00:41:32;;;;;;;2.60;1.65;;;;;;;;;;5068767;28;20480;-78
2021/06/05 00:44:02;;;;;;;1.20;1.10;;;;;;;;;;5068009;28;20045;-78
2021/06/05 00:46:30;;;;;;;2.00;1.48;;;;;;;;;;5069355;28;20470;-78
2021/06/05 00:48:57;;;;;;;1.10;1.10;;;;;;;;;;5090727;28;20174;-78
2021/06/05 00:51:44;;;;;;;1.10;1.10;;;;;;;;;;5067734;28;20505;-78
2021/06/05 00:54:12;;;;;;;1.45;1.20;;;;;;;;;;5015403;28;20132;-78
2021/06/05 00:56:40;;;;;;;1.23;1.10;;;;;;;;;;5007113;28;20057;-78
2021/06/05 00:59:08;;;;;;;1.25;1.25;;;;;;;;;;5006162;28;20057;-78
2021/06/05 01:01:35;;;;;;;1.92;1.40;;;;;;;;;;5007729;28;20069;-78
2021/06/05 01:04:02;;;;;;;4.15;1.40;;;;;;;;;;4987429;28;20530;-78
2021/06/05 01:06:51;;;;;;;2.15;1.33;;;;;;;;;;4993614;28;20050;-78
2021/06/05 01:09:45;;;;;;;1.67;1.50;;;;;;;;;;4980552;28;20527;-78
2021/06/05 01:12:41;;;;;;;1.33;1.25;;;;;;;;;;5004792;28;20058;-78
2021/06/05 01:15:11;;;;;;;1.23;1.20;;;;;;;;;;4948773;28;20058;-78
2021/06/05 01:17:48;;;;;;;1.52;1.42;;;;;;;;;;4965186;28;20047;-78
2021/06/05 01:20:22;;;;;;;1.90;1.25;;;;;;;;;;4949633;28;20619;-78
2021/06/05 01:22:55;;;;;;;3.58;1.20;;;;;;;;;;4949091;28;20102;-78
2021/06/05 01:25:41;;;;;;;1.38;1.35;;;;;;;;;;4949866;28;20464;-78
2021/06/05 01:28:12;;;;;;;1.95;1.70;;;;;;;;;;4948837;28;20566;-78
2021/06/05 01:30:41;;;;;;;3.17;1.33;;;;;;;;;;4960041;28;20049;-78
2021/06/05 01:33:07;;;;;;;1.60;1.50;;;;;;;;;;5011576;28;20054;-78
2021/06/05 01:35:35;;;;;;;1.75;1.20;;;;;;;;;;5002005;28;20037;-78
2021/06/05 01:38:03;;;;;;;1.85;1.30;;;;;;;;;;5010629;28;20436;-78
2021/06/05 01:40:31;;;;;;;2.35;1.38;;;;;;;;;;4992909;28;20439;-78
2021/06/05 01:43:00;;;;;;;2.50;2.15;;;;;;;;;;5024489;28;20100;-78
2021/06/05 01:45:29;;;;;;;2.15;1.23;;;;;;;;;;4994285;28;20060;-78
2021/06/05 01:47:56;;;;;;;4.57;1.30;;;;;;;;;;4994524;28;20444;-78
2021/06/05 01:50:25;;;;;;;2.42;1.10;;;;;;;;;;5019712;28;20095;-78
2021/06/05 01:52:53;;;;;;;1.73;1.10;;;;;;;;;;5071224;28;20046;-78
2021/06/05 01:55:23;;;;;;;1.40;1.30;;;;;;;;;;5072709;28;20036;-78
2021/06/05 01:57:52;;;;;;;1.17;1.13;;;;;;;;;;5061455;28;20025;-78
2021/06/05 02:00:24;;;;;;;1.10;1.10;;;;;;;;;;5102545;28;20037;-78
2021/06/05 02:02:51;;;;;;;2.78;1.50;;;;;;;;;;5066406;28;20039;-78
2021/06/05 02:05:19;;;;;;;1.05;1.05;;;;;;;;;;5050231;28;20048;-78
2021/06/05 02:07:45;;;;;;;1.58;1.48;;;;;;;;;;5094470;28;20048;-78
2021/06/05 02:10:16;;;;;;;1.10;1.10;;;;;;;;;;5069616;28;20044;-78
2021/06/05 02:12:43;;;;;;;1.30;1.30;;;;;;;;;;5052149;28;20049;-78
2021/06/05 02:15:19;;;;;;;1.23;1.10;;;;;;;;;;5069417;28;20067;-78
2021/06/05 02:17:46;;;;;;;2.88;1.30;;;;;;;;;;5070233;28;20139;-78
2021/06/05 02:20:24;;;;;;;1.15;1.15;;;;;;;;;;5068710;28;21116;-78
2021/06/05 02:22:51;;;;;;;6.35;1.48;;;;;;;;;;5056605;28;20441;-78
2021/06/05 02:25:21;;;;;;;1.95;1.17;;;;;;;;;;5102109;28;20515;-78
2021/06/05 02:27:49;;;;;;;2.40;1.00;;;;;;;;;;5053450;28;20039;-78
2021/06/05 02:30:18;;;;;;;1.52;1.30;;;;;;;;;;5071665;28;20040;-78
2021/06/05 02:32:46;;;;;;;2.65;1.20;;;;;;;;;;5070317;28;20094;-78
2021/06/05 02:35:14;;;;;;;1.15;1.15;;;;;;;;;;5086566;28;20424;-78
2021/06/05 02:37:41;;;;;;;2.15;1.38;;;;;;;;;;5069650;28;20040;-78
2021/06/05 02:40:13;;;;;;;1.73;1.30;;;;;;;;;;5071480;28;20090;-78
2021/06/05 02:42:40;;;;;;;1.40;1.30;;;;;;;;;;5071086;28;20044;-78
2021/06/05 02:45:09;;;;;;;1.20;1.10;;;;;;;;;;5050783;28;20040;-78
2021/06/05 02:47:36;;;;;;;1.20;1.20;;;;;;;;;;5061349;28;20424;-78
2021/06/05 02:50:07;;;;;;;1.95;1.33;;;;;;;;;;5071877;28;20637;-78
2021/06/05 02:52:34;;;;;;;2.08;1.45;;;;;;;;;;5068586;28;20039;-78
2021/06/05 02:55:04;;;;;;;1.20;1.20;;;;;;;;;;5069773;28;20063;-78
2021/06/05 02:57:32;;;;;;;1.55;1.48;;;;;;;;;;5071622;28;20025;-78
2021/06/05 03:00:24;;;;;;;1.55;1.25;;;;;;;;;;5062673;28;20128;-78
2021/06/05 03:02:51;;;;;;;5.40;1.35;;;;;;;;;;5064421;28;20037;-78
2021/06/05 03:05:19;;;;;;;1.58;1.10;;;;;;;;;;5069867;28;20082;-78
2021/06/05 03:07:45;;;;;;;1.27;1.23;;;;;;;;;;5070490;28;20086;-78
2021/06/05 03:10:13;;;;;;;2.10;1.40;;;;;;;;;;5070240;28;20052;-78
2021/06/05 03:12:39;;;;;;;1.40;1.30;;;;;;;;;;5051559;28;20053;-78
2021/06/05 03:15:07;;;;;;;1.35;1.35;;;;;;;;;;5064006;28;20102;-78
2021/06/05 03:17:33;;;;;;;2.25;1.33;;;;;;;;;;5066096;28;20041;-78
2021/06/05 03:20:00;;;;;;;1.20;1.20;;;;;;;;;;5070117;28;20036;-78
2021/06/05 03:22:27;;;;;;;1.20;1.20;;;;;;;;;;5069755;28;20040;-78
2021/06/05 03:24:54;;;;;;;1.48;1.10;;;;;;;;;;5070595;28;20032;-78
2021/06/05 03:27:21;;;;;;;1.58;1.30;;;;;;;;;;5070020;28;20087;-78
2021/06/05 03:29:48;;;;;;;1.27;1.27;;;;;;;;;;5072168;28;20041;-78
2021/06/05 03:32:15;;;;;;;3.05;1.10;;;;;;;;;;5060344;28;20044;-78
2021/06/05 03:34:41;;;;;;;4.00;1.30;;;;;;;;;;5053314;28;20055;-78
2021/06/05 03:37:09;;;;;;;1.23;1.10;;;;;;;;;;5066514;28;20049;-78
2021/06/05 03:39:36;;;;;;;1.10;1.10;;;;;;;;;;5053668;28;20040;-78
2021/06/05 03:42:04;;;;;;;1.00;1.00;;;;;;;;;;5068892;28;20040;-78
2021/06/05 03:44:30;;;;;;;3.72;1.63;;;;;;;;;;5069272;28;20056;-78
2021/06/05 03:46:57;;;;;;;1.50;1.50;;;;;;;;;;5058650;28;20048;-78
2021/06/05 03:49:24;;;;;;;1.20;1.10;;;;;;;;;;5064299;28;20136;-78
2021/06/05 03:51:52;;;;;;;1.48;1.13;;;;;;;;;;5054787;28;20037;-78
2021/06/05 03:54:19;;;;;;;1.30;1.20;;;;;;;;;;5068756;28;20090;-78
2021/06/05 03:56:46;;;;;;;1.42;1.33;;;;;;;;;;5069762;28;20047;-78
2021/06/05 03:59:13;;;;;;;1.10;1.10;;;;;;;;;;5063216;28;20555;-78
2021/06/05 04:01:39;;;;;;;1.23;1.23;;;;;;;;;;5069582;28;20033;-78
2021/06/05 04:04:06;;;;;;;1.23;1.23;;;;;;;;;;5070279;28;20147;-78
2021/06/05 04:06:33;;;;;;;1.75;1.65;;;;;;;;;;5069403;28;20133;-78
2021/06/05 04:09:01;;;;;;;1.00;1.00;;;;;;;;;;5067220;28;20039;-78
2021/06/05 04:11:29;;;;;;;2.35;1.30;;;;;;;;;;5053644;28;20036;-78
2021/06/05 04:13:56;;;;;;;1.20;1.20;;;;;;;;;;5070374;28;20040;-78
2021/06/05 04:16:23;;;;;;;1.67;1.52;;;;;;;;;;5069409;28;20067;-78
2021/06/05 04:18:50;;;;;;;1.10;1.10;;;;;;;;;;5064423;28;20050;-78
2021/06/05 04:21:19;;;;;;;4.00;3.05;;;;;;;;;;5067910;28;20070;-78
2021/06/05 04:23:46;;;;;;;1.40;1.30;;;;;;;;;;5067791;28;20494;-78
2021/06/05 04:26:13;;;;;;;2.25;1.70;;;;;;;;;;5092370;28;20441;-78
2021/06/05 04:28:40;;;;;;;2.03;1.50;;;;;;;;;;5059083;28;20074;-78
2021/06/05 04:31:07;;;;;;;1.40;1.40;;;;;;;;;;5066323;28;20512;-78
2021/06/05 04:33:34;;;;;;;1.60;1.50;;;;;;;;;;5068886;28;20041;-78
2021/06/05 04:36:02;;;;;;;1.75;1.38;;;;;;;;;;5070484;28;21685;-78
2021/06/05 04:38:29;;;;;;;2.35;1.10;;;;;;;;;;5068970;28;20033;-78
2021/06/05 04:40:56;;;;;;;1.20;1.20;;;;;;;;;;5066606;28;20044;-78
2021/06/05 04:43:23;;;;;;;1.58;1.30;;;;;;;;;;5067908;28;20776;-78
2021/06/05 04:45:51;;;;;;;2.53;1.10;;;;;;;;;;5067769;28;20390;-78
2021/06/05 04:48:19;;;;;;;1.40;1.30;;;;;;;;;;5070175;28;20041;-78
2021/06/05 04:50:46;;;;;;;1.42;1.33;;;;;;;;;;5067928;28;20137;-78
2021/06/05 04:53:13;;;;;;;2.30;1.25;;;;;;;;;;5066585;28;20041;-78
2021/06/05 04:55:40;;;;;;;1.23;1.13;;;;;;;;;;5068769;28;20110;-78
2021/06/05 04:58:07;;;;;;;2.85;1.85;;;;;;;;;;5069491;28;20044;-78
2021/06/05 05:00:36;;;;;;;1.83;1.60;;;;;;;;;;5064342;28;20059;-78
2021/06/05 05:03:04;;;;;;;1.80;1.30;;;;;;;;;;5068494;28;20052;-78
2021/06/05 05:05:31;;;;;;;3.90;1.27;;;;;;;;;;5067101;28;20468;-78
2021/06/05 05:07:59;;;;;;;2.95;1.30;;;;;;;;;;5061964;28;20032;-78
2021/06/05 05:10:31;;;;;;;1.17;1.17;;;;;;;;;;5071393;28;20082;-79
2021/06/05 05:12:58;;;;;;;2.63;1.60;;;;;;;;;;5054688;28;20444;-78
2021/06/05 05:15:26;;;;;;;3.33;1.67;;;;;;;;;;5103833;28;20314;-78
2021/06/05 05:17:53;;;;;;;1.48;1.30;;;;;;;;;;5069209;28;20076;-78
2021/06/05 05:20:23;;;;;;;1.10;1.10;;;;;;;;;;5084185;28;20033;-78
2021/06/05 05:22:50;;;;;;;1.70;1.15;;;;;;;;;;5073030;28;20033;-78
2021/06/05 05:25:17;;;;;;;1.23;1.10;;;;;;;;;;5072461;28;20036;-78
2021/06/05 05:27:44;;;;;;;1.10;1.10;;;;;;;;;;5088876;28;20058;-78
2021/06/05 05:30:14;;;;;;;1.40;1.30;;;;;;;;;;5070671;28;20094;-78
2021/06/05 05:32:41;;;;;;;1.30;1.20;;;;;;;;;;5073250;28;20432;-78
2021/06/05 05:35:08;;;;;;;1.95;1.20;;;;;;;;;;5070756;28;20051;-78
2021/06/05 05:37:36;;;;;;;1.38;1.10;;;;;;;;;;5104576;28;20044;-78
2021/06/05 05:40:04;;;;;;;1.42;1.30;;;;;;;;;;5071905;28;20090;-78
2021/06/05 05:42:31;;;;;;;1.48;1.38;;;;;;;;;;5070368;28;20056;-78
2021/06/05 05:44:58;;;;;;;3.63;2.13;;;;;;;;;;5071480;28;20101;-78
2021/06/05 05:47:24;;;;;;;2.42;2.10;;;;;;;;;;5062957;28;20044;-78
2021/06/05 05:49:51;;;;;;;1.20;1.20;;;;;;;;;;5069999;28;20385;-78
2021/06/05 05:52:18;;;;;;;1.33;1.20;;;;;;;;;;5070602;28;20041;-78
2021/06/05 05:54:45;;;;;;;1.60;1.20;;;;;;;;;;5071260;28;20028;-78
2021/06/05 05:57:12;;;;;;;1.33;1.17;;;;;;;;;;5071377;28;20040;-78
2021/06/05 05:59:39;;;;;;;2.35;1.10;;;;;;;;;;5056897;28;20041;-78
2021/06/05 06:02:05;;;;;;;1.35;1.35;;;;;;;;;;5069328;28;20385;-78
2021/06/05 06:04:32;;;;;;;1.20;1.10;;;;;;;;;;5062509;28;20695;-78
2021/06/05 06:06:59;;;;;;;2.05;1.10;;;;;;;;;;5070859;28;20045;-78
2021/06/05 06:09:26;;;;;;;1.98;1.30;;;;;;;;;;5070285;28;20041;-78
2021/06/05 06:11:53;;;;;;;3.05;1.20;;;;;;;;;;5072271;28;20106;-78
2021/06/05 06:14:20;;;;;;;1.52;1.48;;;;;;;;;;5071147;28;20036;-79
2021/06/05 06:16:48;;;;;;;1.85;1.02;;;;;;;;;;5070762;28;20041;-79
2021/06/05 06:19:15;;;;;;;3.50;1.30;;;;;;;;;;5070019;28;20028;-79
2021/06/05 06:21:42;;;;;;;1.10;1.10;;;;;;;;;;5069346;28;20555;-79
2021/06/05 06:24:10;;;;;;;1.00;1.00;;;;;;;;;;5070966;28;20040;-79
2021/06/05 06:26:38;;;;;;;1.30;1.10;;;;;;;;;;5066506;28;20037;-79
2021/06/05 06:29:19;;;;;;;1.02;1.02;;;;;;;;;;5055744;28;20104;-79
2021/06/05 06:31:46;;;;;;;2.13;1.10;;;;;;;;;;5071777;28;20052;-79
2021/06/05 06:34:14;;;;;;;1.25;1.00;;;;;;;;;;5065425;28;20028;-79
2021/06/05 06:36:45;;;;;;;1.00;1.00;;;;;;;;;;5098187;28;20037;-79
2021/06/05 06:39:13;;;;;;;1.00;1.00;;;;;;;;;;5063380;28;20090;-79
2021/06/05 06:41:40;;;;;;;1.00;1.00;;;;;;;;;;5066495;28;20093;-79
2021/06/05 06:44:07;;;;;;;3.90;1.20;;;;;;;;;;5069530;28;20382;-79
2021/06/05 06:46:36;;;;;;;2.60;1.23;;;;;;;;;;5069754;28;20110;-75
2021/06/05 06:49:03;;;;;;;5.35;1.23;;;;;;;;;;5059591;28;20052;-76
2021/06/05 06:51:30;;;;;;;3.22;1.10;;;;;;;;;;5067773;28;20041;-76
2021/06/05 06:53:57;;;;;;;1.40;1.40;;;;;;;;;;5054722;28;20098;-76
2021/06/05 06:56:24;;;;;;;2.80;1.25;;;;;;;;;;5071525;28;20408;-76
2021/06/05 06:58:51;;;;;;;1.20;1.05;;;;;;;;;;5068362;28;20523;-76
2021/06/05 07:01:19;;;;;;;1.25;1.20;;;;;;;;;;5067737;28;20029;-76
2021/06/05 07:03:46;;;;;;;1.25;1.15;;;;;;;;;;5070881;28;20143;-76
2021/06/05 07:06:13;;;;;;;5.10;1.30;;;;;;;;;;5069666;28;20040;-76
2021/06/05 07:08:40;;;;;;;1.80;1.20;;;;;;;;;;5069695;28;20075;-76
2021/06/05 07:11:12;;;;;;;1.60;1.30;;;;;;;;;;5070259;28;20051;-76
2021/06/05 07:13:39;;;;;;;1.38;1.27;;;;;;;;;;5069459;28;20435;-76
2021/06/05 07:16:06;;;;;;;3.47;1.10;;;;;;;;;;5057581;28;20041;-76
2021/06/05 07:18:34;;;;;;;2.70;1.30;;;;;;;;;;5064519;28;20448;-76
2021/06/05 07:21:01;;;;;;;2.67;1.05;;;;;;;;;;5068348;28;20061;-76
2021/06/05 07:23:30;;;;;;;1.90;1.00;;;;;;;;;;5070284;28;20036;-77
2021/06/05 07:25:58;;;;;;;6.57;1.20;;;;;;;;;;5069138;28;20039;-76
2021/06/05 07:28:29;;;;;;;2.65;1.10;;;;;;;;;;5070964;28;20086;-76
2021/06/05 07:30:57;;;;;;;2.25;1.10;;;;;;;;;;5068117;28;20045;-76
2021/06/05 07:33:24;;;;;;;0.90;0.90;;;;;;;;;;5063679;28;20115;-76
2021/06/05 07:35:52;;;;;;;3.50;1.00;;;;;;;;;;5061170;28;20037;-76
2021/06/05 07:38:19;;;;;;;1.55;1.45;;;;;;;;;;5069154;28;20032;-76
2021/06/05 07:40:46;;;;;;;1.83;1.73;;;;;;;;;;5070104;28;20102;-76
2021/06/05 07:43:14;;;;;;;3.22;1.20;;;;;;;;;;5068426;28;20090;-76
2021/06/05 07:45:41;;;;;;;1.85;1.00;;;;;;;;;;5070159;28;20036;-77
2021/06/05 07:48:08;;;;;;;0.90;0.90;;;;;;;;;;5060031;28;20045;-76
2021/06/05 07:50:35;;;;;;;0.93;0.90;;;;;;;;;;5080806;28;20040;-76
2021/06/05 07:53:01;;;;;;;1.30;0.90;;;;;;;;;;5070468;28;20048;-77
2021/06/05 07:55:29;;;;;;;6.28;1.58;;;;;;;;;;5061407;28;20037;-76
2021/06/05 07:57:56;;;;;;;2.97;1.10;;;;;;;;;;5056221;28;20060;-76
2021/06/05 08:00:26;;;;;;;2.25;0.90;;;;;;;;;;5069505;28;20555;-77
2021/06/05 08:02:55;;;;;;;7.00;0.90;;;;;;;;;;5068139;28;20044;-77
2021/06/05 08:05:22;;;;;;;2.15;0.90;;;;;;;;;;5071160;28;20075;-77
2021/06/05 08:07:50;;;;;;;4.70;0.85;;;;;;;;;;5069186;28;20033;-77
2021/06/05 08:10:18;;;;;;;1.13;0.90;;;;;;;;;;5069120;28;20549;-76
2021/06/05 08:12:49;;;;;;;4.90;0.90;;;;;;;;;;5068890;28;20048;-77
2021/06/05 08:15:19;;;;;;;5.30;1.08;;;;;;;;;;5066189;28;20086;-77
2021/06/05 08:17:46;;;;;;;1.70;0.90;;;;;;;;;;5068170;28;20517;-77
2021/06/05 08:20:15;;;;;;;6.05;0.90;;;;;;;;;;5068617;28;20082;-77
2021/06/05 08:22:43;;;;;;;2.08;0.85;;;;;;;;;;5061169;28;20045;-77
2021/06/05 08:25:10;;;;;;;1.05;0.95;;;;;;;;;;5069983;28;20090;-77
2021/06/05 08:27:38;;;;;;;0.93;0.80;;;;;;;;;;5061784;28;20041;-77
2021/06/05 08:30:10;;;;;;;0.85;0.85;;;;;;;;;;5069000;28;20041;-77
2021/06/05 08:32:37;;;;;;;0.88;0.82;;;;;;;;;;5069690;28;20137;-77
2021/06/05 08:35:03;;;;;;;0.80;0.80;;;;;;;;;;5068697;28;20044;-77
2021/06/05 08:37:30;;;;;;;1.95;0.73;;;;;;;;;;5069737;28;20059;-77
2021/06/05 08:39:57;;;;;;;1.75;0.93;;;;;;;;;;5068292;28;20114;-77
2021/06/05 08:42:32;;;;;;;1.80;0.80;;;;;;;;;;5070368;28;20444;-77
2021/06/05 08:44:59;;;;;;;1.83;0.80;;;;;;;;;;5066793;28;20059;-77
2021/06/05 08:47:28;;;;;;;0.77;0.77;;;;;;;;;;5050289;28;20049;-77
2021/06/05 08:49:54;;;;;;;0.80;0.80;;;;;;;;;;5068214;28;20044;-77
2021/06/05 08:52:26;;;;;;;1.27;0.80;;;;;;;;;;5062196;28;20041;-77
2021/06/05 08:54:53;;;;;;;1.20;0.70;;;;;;;;;;5051379;28;20090;-77
2021/06/05 08:57:34;;;;;;;0.80;0.80;;;;;;;;;;5053602;28;20045;-77
2021/06/05 09:00:22;;;;;;;1.10;0.82;;;;;;;;;;5066661;28;20398;-77
2021/06/05 09:02:51;;;;;;;1.58;0.80;;;;;;;;;;5083191;28;20113;-77
2021/06/05 09:05:22;;;;;;;1.45;0.80;;;;;;;;;;5068282;28;20143;-77
2021/06/05 09:07:49;;;;;;;1.27;0.80;;;;;;;;;;5068382;28;20040;-77
2021/06/05 09:10:18;;;;;;;0.98;0.90;;;;;;;;;;5066821;28;20044;-77
2021/06/05 09:12:45;;;;;;;1.40;1.00;;;;;;;;;;5068310;28;20032;-77
2021/06/05 09:15:25;;;;;;;0.80;0.80;;;;;;;;;;5068334;28;20045;-77
2021/06/05 09:17:55;;;;;;;0.80;0.80;;;;;;;;;;5051309;28;20048;-77
2021/06/05 09:20:41;;;;;;;1.38;0.80;;;;;;;;;;5080218;28;20041;-77
2021/06/05 09:23:23;;;;;;;1.70;0.80;;;;;;;;;;5065456;28;20040;-76
2021/06/05 09:25:51;;;;;;;0.80;0.80;;;;;;;;;;5068085;28;20054;-77
2021/06/05 09:28:26;;;;;;;2.70;0.90;;;;;;;;;;5066067;28;20044;-77
2021/06/05 09:31:12;;;;;;;1.02;0.90;;;;;;;;;;5066155;28;20044;-76
2021/06/05 09:33:41;;;;;;;1.95;0.90;;;;;;;;;;5054004;28;20048;-77
2021/06/05 09:36:33;;;;;;;0.88;0.88;;;;;;;;;;5062138;28;20099;-76
2021/06/05 09:39:05;;;;;;;1.35;0.80;;;;;;;;;;5057215;28;20119;-76
2021/06/05 09:41:35;;;;;;;1.55;0.90;;;;;;;;;;5065737;28;20056;-76
2021/06/05 09:44:21;;;;;;;0.80;0.80;;;;;;;;;;5065871;28;20037;-76
2021/06/05 09:47:03;;;;;;;1.85;0.80;;;;;;;;;;5057853;28;20048;-76
2021/06/05 09:49:36;;;;;;;0.82;0.80;;;;;;;;;;5067432;28;20048;-76
2021/06/05 09:52:12;;;;;;;1.83;0.80;;;;;;;;;;5066498;28;20032;-76
2021/06/05 09:54:46;;;;;;;1.13;0.80;;;;;;;;;;5069653;28;20028;-78
2021/06/05 09:57:20;;;;;;;0.98;0.90;;;;;;;;;;5070764;28;20040;-81
2021/06/05 10:00:02;;;;;;;1.40;0.98;;;;;;;;;;5049219;28;20370;-77
2021/06/05 10:02:29;;;;;;;1.02;1.02;;;;;;;;;;5067548;28;20103;-77
2021/06/05 10:05:15;;;;;;;1.00;1.00;;;;;;;;;;5071932;28;20064;-77
2021/06/05 10:07:42;;;;;;;3.42;1.00;;;;;;;;;;5048093;28;20558;-76
2021/06/05 10:10:36;;;;;;;0.90;0.90;;;;;;;;;;5037266;28;20106;-78
2021/06/05 10:13:06;;;;;;;8.98;1.05;;;;;;;;;;5030931;28;20617;-78
2021/06/05 10:15:39;;;;;;;0.90;0.90;;;;;;;;;;5041964;28;20044;-78
2021/06/05 10:18:13;;;;;;;1.75;0.95;;;;;;;;;;5036046;28;20078;-78
2021/06/05 10:20:40;;;;;;;0.82;0.80;;;;;;;;;;5041994;28;20103;-78
2021/06/05 10:23:08;;;;;;;3.78;0.90;;;;;;;;;;5051584;28;20068;-78
2021/06/05 10:25:40;;;;;;;1.75;0.80;;;;;;;;;;5044277;28;20063;-78
2021/06/05 10:28:10;;;;;;;1.00;0.90;;;;;;;;;;5044734;28;20056;-78
2021/06/05 10:30:38;;;;;;;0.82;0.80;;;;;;;;;;5048147;28;20044;-78
2021/06/05 10:33:09;;;;;;;3.15;0.80;;;;;;;;;;5025116;28;20057;-78
2021/06/05 10:35:39;;;;;;;0.85;0.85;;;;;;;;;;5012052;28;20053;-78
2021/06/05 10:38:08;;;;;;;0.90;0.90;;;;;;;;;;4995720;28;20049;-78
2021/06/05 10:40:37;;;;;;;0.90;0.90;;;;;;;;;;5010808;28;20054;-78
2021/06/05 10:43:06;;;;;;;2.90;0.90;;;;;;;;;;4999959;28;20050;-78
2021/06/05 10:45:39;;;;;;;0.90;0.90;;;;;;;;;;5009591;28;20054;-78
2021/06/05 10:48:12;;;;;;;1.35;0.90;;;;;;;;;;4991050;28;20038;-78
2021/06/05 10:50:47;;;;;;;0.90;0.90;;;;;;;;;;5010830;28;20042;-78
2021/06/05 10:53:20;;;;;;;2.47;0.90;;;;;;;;;;5026640;28;20049;-78
2021/06/05 10:55:56;;;;;;;1.35;0.90;;;;;;;;;;4991337;28;20385;-78
2021/06/05 10:58:26;;;;;;;2.15;0.90;;;;;;;;;;4987533;28;20062;-78
2021/06/05 11:00:57;;;;;;;1.30;0.90;;;;;;;;;;5007611;28;20097;-78
2021/06/05 11:03:26;;;;;;;1.52;0.80;;;;;;;;;;5009537;28;20049;-78
2021/06/05 11:06:05;;;;;;;1.77;1.10;;;;;;;;;;4993640;28;20050;-78
2021/06/05 11:08:58;;;;;;;7.60;1.92;;;;;;;;;;5009181;28;20057;-78
2021/06/05 11:11:34;;;;;;;2.42;1.00;;;;;;;;;;5025207;28;20048;-78
2021/06/05 11:14:31;;;;;;;0.80;0.80;;;;;;;;;;5031578;28;20132;-78
2021/06/05 11:16:58;;;;;;;0.90;0.90;;;;;;;;;;5054199;28;20060;-78
2021/06/05 11:19:36;;;;;;;1.13;0.80;;;;;;;;;;5068918;28;20040;-78
2021/06/05 11:22:13;;;;;;;2.42;0.88;;;;;;;;;;5070350;28;20048;-78
2021/06/05 11:24:42;;;;;;;1.48;0.90;;;;;;;;;;5067288;28;20032;-78
2021/06/05 11:27:32;;;;;;;2.30;0.90;;;;;;;;;;5070247;28;20543;-78
2021/06/05 11:30:00;;;;;;;1.45;0.98;;;;;;;;;;5081669;28;20051;-78
2021/06/05 11:32:34;;;;;;;0.82;0.82;;;;;;;;;;5070509;28;20063;-78
2021/06/05 11:35:09;;;;;;;1.80;0.80;;;;;;;;;;5101580;28;20037;-78
2021/06/05 11:37:36;;;;;;;1.75;0.90;;;;;;;;;;5062784;28;20028;-78
2021/06/05 11:40:06;;;;;;;0.90;0.90;;;;;;;;;;5069475;28;20039;-78
2021/06/05 11:42:33;;;;;;;0.90;0.90;;;;;;;;;;5066982;28;20102;-78
2021/06/05 11:45:01;;;;;;;1.38;0.82;;;;;;;;;;5069362;28;20045;-78
2021/06/05 11:47:31;;;;;;;1.15;0.90;;;;;;;;;;5080575;28;20473;-78
2021/06/05 11:50:10;;;;;;;0.90;0.90;;;;;;;;;;5066390;28;20048;-78
2021/06/05 11:52:40;;;;;;;3.33;1.10;;;;;;;;;;5101378;28;20049;-78
2021/06/05 11:55:07;;;;;;;1.15;0.80;;;;;;;;;;5062854;28;20033;-78
2021/06/05 11:57:34;;;;;;;0.85;0.85;;;;;;;;;;5061221;28;20086;-78
2021/06/05 12:00:17;;;;;;;1.33;0.90;;;;;;;;;;5068282;28;20410;-78
2021/06/05 12:02:46;;;;;;;0.90;0.90;;;;;;;;;;5080837;28;20059;-78
2021/06/05 12:05:20;;;;;;;1.48;0.80;;;;;;;;;;5096915;28;20068;-78
2021/06/05 12:07:47;;;;;;;1.40;0.75;;;;;;;;;;5068332;28;20032;-78
2021/06/05 12:10:31;;;;;;;0.80;0.80;;;;;;;;;;5066665;28;20090;-78
2021/06/05 12:12:58;;;;;;;2.13;0.80;;;;;;;;;;5055200;28;20036;-78
2021/06/05 12:15:35;;;;;;;0.90;0.80;;;;;;;;;;5049205;28;20041;-78
2021/06/05 12:18:09;;;;;;;0.77;0.77;;;;;;;;;;5075039;28;20543;-78
2021/06/05 12:20:35;;;;;;;2.13;0.70;;;;;;;;;;5092265;28;20547;-78
2021/06/05 12:23:21;;;;;;;0.80;0.80;;;;;;;;;;5066456;28;20385;-78
2021/06/05 12:25:49;;;;;;;1.65;0.80;;;;;;;;;;5076220;28;20048;-78
2021/06/05 12:28:22;;;;;;;2.30;0.80;;;;;;;;;;5068968;28;20062;-78
2021/06/05 12:30:51;;;;;;;1.27;0.70;;;;;;;;;;5066500;28;20099;-78
2021/06/05 12:33:26;;;;;;;0.70;0.70;;;;;;;;;;5068352;28;20386;-78
2021/06/05 12:35:53;;;;;;;0.68;0.68;;;;;;;;;;5095009;28;20460;-78
2021/06/05 12:38:32;;;;;;;1.23;0.73;;;;;;;;;;5067860;28;20028;-78
2021/06/05 12:41:01;;;;;;;0.70;0.70;;;;;;;;;;5068877;28;20659;-78
2021/06/05 12:43:32;;;;;;;1.38;0.60;;;;;;;;;;5063940;28;20037;-78
2021/06/05 12:46:04;;;;;;;0.95;0.80;;;;;;;;;;5066885;28;20512;-78
2021/06/05 12:48:32;;;;;;;0.90;0.70;;;;;;;;;;5069376;28;20090;-78
2021/06/05 12:50:59;;;;;;;1.50;0.70;;;;;;;;;;5066558;28;20102;-78
2021/06/05 12:53:27;;;;;;;1.00;1.00;;;;;;;;;;5066957;28;20032;-78
2021/06/05 12:55:55;;;;;;;1.85;0.77;;;;;;;;;;5067119;28;20033;-78
2021/06/05 12:58:39;;;;;;;2.47;0.80;;;;;;;;;;5067372;28;20094;-78
2021/06/05 13:01:26;;;;;;;1.10;1.10;;;;;;;;;;5086365;28;20481;-79
2021/06/05 13:03:54;;;;;;;0.80;0.80;;;;;;;;;;5025304;28;20049;-79
2021/06/05 13:06:23;;;;;;;0.85;0.70;;;;;;;;;;5007404;28;20045;-79
2021/06/05 13:08:52;;;;;;;0.70;0.70;;;;;;;;;;5000843;28;20148;-79
2021/06/05 13:11:46;;;;;;;0.80;0.70;;;;;;;;;;5025153;28;20049;-79
2021/06/05 13:14:17;;;;;;;0.70;0.70;;;;;;;;;;5023385;28;20053;-79
2021/06/05 13:16:45;;;;;;;2.78;0.70;;;;;;;;;;5009501;28;20108;-79
2021/06/05 13:19:19;;;;;;;0.70;0.70;;;;;;;;;;5006974;28;20037;-79
2021/06/05 13:22:07;;;;;;;1.73;0.70;;;;;;;;;;5025205;28;20395;-79
2021/06/05 13:24:35;;;;;;;1.00;0.60;;;;;;;;;;5017904;28;20045;-79
2021/06/05 13:27:22;;;;;;;0.70;0.70;;;;;;;;;;5020555;28;20469;-79
2021/06/05 13:29:50;;;;;;;0.93;0.65;;;;;;;;;;5006670;28;20391;-79
2021/06/05 13:32:20;;;;;;;0.60;0.60;;;;;;;;;;5001434;28;20144;-79
2021/06/05 13:34:53;;;;;;;0.60;0.60;;;;;;;;;;5009595;28;20447;-79
2021/06/05 13:37:31;;;;;;;0.60;0.60;;;;;;;;;;4999122;28;20053;-79
2021/06/05 13:40:10;;;;;;;1.92;0.75;;;;;;;;;;5010736;28;20415;-79
2021/06/05 13:42:40;;;;;;;2.45;0.70;;;;;;;;;;5061596;28;20036;-79
2021/06/05 13:45:13;;;;;;;0.80;0.60;;;;;;;;;;5048103;28;20044;-79
2021/06/05 13:47:42;;;;;;;1.70;0.70;;;;;;;;;;5050946;28;20052;-79
2021/06/05 13:50:10;;;;;;;1.58;0.65;;;;;;;;;;5035116;28;20036;-79
2021/06/05 13:52:37;;;;;;;1.50;0.60;;;;;;;;;;5066195;28;20057;-79
2021/06/05 13:55:04;;;;;;;0.77;0.60;;;;;;;;;;5051186;28;20036;-79
2021/06/05 13:57:32;;;;;;;0.70;0.60;;;;;;;;;;5036314;28;20050;-79
2021/06/05 14:00:01;;;;;;;0.70;0.70;;;;;;;;;;5060100;28;20040;-79
2021/06/05 14:02:28;;;;;;;1.63;0.60;;;;;;;;;;5059327;28;20044;-79
2021/06/05 14:04:55;;;;;;;0.60;0.60;;;;;;;;;;5070189;28;20086;-79
2021/06/05 14:07:23;;;;;;;1.17;0.70;;;;;;;;;;5059723;28;20055;-79
2021/06/05 14:09:50;;;;;;;0.60;0.60;;;;;;;;;;5087603;28;20036;-79
2021/06/05 14:12:22;;;;;;;0.50;0.50;;;;;;;;;;5086485;28;20056;-79
2021/06/05 14:14:49;;;;;;;2.73;0.60;;;;;;;;;;5062941;28;20152;-79
2021/06/05 14:17:16;;;;;;;1.52;0.60;;;;;;;;;;5051050;28;20144;-79
2021/06/05 14:19:44;;;;;;;1.60;0.60;;;;;;;;;;5068531;28;20040;-79
2021/06/05 14:22:14;;;;;;;0.60;0.60;;;;;;;;;;5070656;28;20045;-79
2021/06/05 14:24:44;;;;;;;0.60;0.60;;;;;;;;;;5065605;28;20036;-79
2021/06/05 14:27:12;;;;;;;0.75;0.60;;;;;;;;;;5066162;28;20056;-79
2021/06/05 14:29:42;;;;;;;1.15;0.70;;;;;;;;;;5070584;28;20802;-79
2021/06/05 14:32:10;;;;;;;0.85;0.85;;;;;;;;;;5072225;28;20505;-79
2021/06/05 14:34:37;;;;;;;1.05;0.95;;;;;;;;;;5066442;28;20055;-79
2021/06/05 14:37:07;;;;;;;0.60;0.60;;;;;;;;;;5071312;28;20055;-79
2021/06/05 14:39:35;;;;;;;0.70;0.70;;;;;;;;;;5099485;28;20071;-79
2021/06/05 14:42:05;;;;;;;0.60;0.60;;;;;;;;;;5069583;28;20124;-79
2021/06/05 14:44:33;;;;;;;0.70;0.70;;;;;;;;;;5069483;28;20556;-79
2021/06/05 14:47:00;;;;;;;2.80;0.80;;;;;;;;;;5064748;28;20515;-79
2021/06/05 14:49:28;;;;;;;2.25;0.80;;;;;;;;;;5093296;28;20040;-79
2021/06/05 14:51:56;;;;;;;0.70;0.70;;;;;;;;;;5068486;28;20052;-79
2021/06/05 14:54:23;;;;;;;0.70;0.70;;;;;;;;;;5073129;28;20041;-79
2021/06/05 14:56:52;;;;;;;1.10;0.80;;;;;;;;;;5068414;28;20024;-79
2021/06/05 14:59:25;;;;;;;0.82;0.82;;;;;;;;;;5054843;28;20042;-79
2021/06/05 15:01:52;;;;;;;2.47;0.85;;;;;;;;;;5071422;28;20052;-79